sensor_id;sensor_type;location;lat;lon;timestamp;P1;durP1;ratioP1;P2;durP2;ratioP2
32172;SDS011;18679;45.190;5.722;2023-07-02T00:03:01;4.13;;;2.85;;
32172;SDS011;18679;45.190;5.722;2023-07-02T00:06:02;7.10;;;3.55;;
32172;SDS011;18679;45.190;5.722;2023-07-02T00:09:03;5.22;;;3.50;;
32172;SDS011;18679;45.190;5.722;2023-07-02T00:12:04;6.40;;;3.17;;
32172;SDS011;18679;45.190;5.722;2023-07-02T00:15:06;4.93;;;3.30;;
32172;SDS011;18679;45.190;5.722;2023-07-02T00:18:08;4.72;;;2.58;;
32172;SDS011;18679;45.190;5.722;2023-07-02T00:21:08;8.63;;;3.00;;
32172;SDS011;18679;45.190;5.722;2023-07-02T00:24:13;5.53;;;2.90;;
32172;SDS011;18679;45.190;5.722;2023-07-02T00:27:16;3.38;;;2.40;;
32172;SDS011;18679;45.190;5.722;2023-07-02T00:30:16;5.07;;;2.70;;
32172;SDS011;18679;45.190;5.722;2023-07-02T00:33:17;7.55;;;2.58;;
32172;SDS011;18679;45.190;5.722;2023-07-02T00:36:19;5.70;;;2.60;;
32172;SDS011;18679;45.190;5.722;2023-07-02T00:39:20;3.65;;;2.17;;
32172;SDS011;18679;45.190;5.722;2023-07-02T00:42:21;3.28;;;2.15;;
32172;SDS011;18679;45.190;5.722;2023-07-02T00:45:23;8.45;;;4.05;;
32172;SDS011;18679;45.190;5.722;2023-07-02T00:48:26;7.57;;;3.90;;
32172;SDS011;18679;45.190;5.722;2023-07-02T00:51:27;12.52;;;5.03;;
32172;SDS011;18679;45.190;5.722;2023-07-02T00:54:29;10.95;;;4.93;;
32172;SDS011;18679;45.190;5.722;2023-07-02T00:57:31;8.68;;;4.45;;
32172;SDS011;18679;45.190;5.722;2023-07-02T01:00:32;12.15;;;4.57;;
32172;SDS011;18679;45.190;5.722;2023-07-02T01:03:33;10.27;;;5.30;;
32172;SDS011;18679;45.190;5.722;2023-07-02T01:06:37;9.65;;;5.13;;
32172;SDS011;18679;45.190;5.722;2023-07-02T01:09:41;9.75;;;4.82;;
32172;SDS011;18679;45.190;5.722;2023-07-02T01:12:42;10.48;;;5.25;;
32172;SDS011;18679;45.190;5.722;2023-07-02T01:15:44;10.48;;;5.18;;
32172;SDS011;18679;45.190;5.722;2023-07-02T01:18:45;9.23;;;5.03;;
32172;SDS011;18679;45.190;5.722;2023-07-02T01:21:46;9.02;;;5.03;;
32172;SDS011;18679;45.190;5.722;2023-07-02T01:24:49;8.68;;;4.97;;
32172;SDS011;18679;45.190;5.722;2023-07-02T01:27:52;7.47;;;3.47;;
32172;SDS011;18679;45.190;5.722;2023-07-02T01:30:53;11.07;;;3.72;;
32172;SDS011;18679;45.190;5.722;2023-07-02T01:33:54;5.93;;;3.40;;
32172;SDS011;18679;45.190;5.722;2023-07-02T01:36:55;5.78;;;2.80;;
32172;SDS011;18679;45.190;5.722;2023-07-02T01:39:56;7.65;;;2.53;;
32172;SDS011;18679;45.190;5.722;2023-07-02T01:42:56;4.82;;;3.00;;
32172;SDS011;18679;45.190;5.722;2023-07-02T01:45:57;7.47;;;2.65;;
32172;SDS011;18679;45.190;5.722;2023-07-02T01:48:59;3.85;;;2.50;;
32172;SDS011;18679;45.190;5.722;2023-07-02T01:52:00;4.85;;;2.88;;
32172;SDS011;18679;45.190;5.722;2023-07-02T01:55:01;7.35;;;3.15;;
32172;SDS011;18679;45.190;5.722;2023-07-02T01:58:04;4.45;;;2.75;;
32172;SDS011;18679;45.190;5.722;2023-07-02T02:01:05;4.88;;;2.72;;
32172;SDS011;18679;45.190;5.722;2023-07-02T02:04:07;6.55;;;3.40;;
32172;SDS011;18679;45.190;5.722;2023-07-02T02:07:08;5.60;;;3.70;;
32172;SDS011;18679;45.190;5.722;2023-07-02T02:10:09;6.28;;;3.30;;
32172;SDS011;18679;45.190;5.722;2023-07-02T02:13:10;7.00;;;3.38;;
32172;SDS011;18679;45.190;5.722;2023-07-02T02:16:11;5.40;;;3.47;;
32172;SDS011;18679;45.190;5.722;2023-07-02T02:19:12;8.27;;;4.40;;
32172;SDS011;18679;45.190;5.722;2023-07-02T02:22:14;7.03;;;4.03;;
32172;SDS011;18679;45.190;5.722;2023-07-02T02:25:15;11.45;;;4.75;;
32172;SDS011;18679;45.190;5.722;2023-07-02T02:28:16;9.52;;;4.78;;
32172;SDS011;18679;45.190;5.722;2023-07-02T02:31:17;9.63;;;4.95;;
32172;SDS011;18679;45.190;5.722;2023-07-02T02:34:18;10.82;;;5.20;;
32172;SDS011;18679;45.190;5.722;2023-07-02T02:37:20;9.13;;;4.78;;
32172;SDS011;18679;45.190;5.722;2023-07-02T02:40:23;11.05;;;5.32;;
32172;SDS011;18679;45.190;5.722;2023-07-02T02:43:24;9.38;;;5.10;;
32172;SDS011;18679;45.190;5.722;2023-07-02T02:46:25;9.68;;;5.10;;
32172;SDS011;18679;45.190;5.722;2023-07-02T02:49:27;9.77;;;5.10;;
32172;SDS011;18679;45.190;5.722;2023-07-02T02:52:27;22.98;;;8.75;;
32172;SDS011;18679;45.190;5.722;2023-07-02T02:55:28;17.38;;;8.27;;
32172;SDS011;18679;45.190;5.722;2023-07-02T02:58:29;24.83;;;14.00;;
32172;SDS011;18679;45.190;5.722;2023-07-02T03:01:30;37.53;;;16.40;;
32172;SDS011;18679;45.190;5.722;2023-07-02T03:04:31;21.52;;;10.90;;
32172;SDS011;18679;45.190;5.722;2023-07-02T03:07:32;12.00;;;6.93;;
32172;SDS011;18679;45.190;5.722;2023-07-02T03:10:33;12.13;;;6.40;;
32172;SDS011;18679;45.190;5.722;2023-07-02T03:13:34;15.27;;;6.65;;
32172;SDS011;18679;45.190;5.722;2023-07-02T03:16:35;16.77;;;6.90;;
32172;SDS011;18679;45.190;5.722;2023-07-02T03:19:37;14.85;;;6.07;;
32172;SDS011;18679;45.190;5.722;2023-07-02T03:22:37;12.57;;;7.07;;
32172;SDS011;18679;45.190;5.722;2023-07-02T03:25:38;11.15;;;5.75;;
32172;SDS011;18679;45.190;5.722;2023-07-02T03:28:39;20.40;;;7.43;;
32172;SDS011;18679;45.190;5.722;2023-07-02T03:31:40;10.20;;;5.82;;
32172;SDS011;18679;45.190;5.722;2023-07-02T03:34:41;18.95;;;8.13;;
32172;SDS011;18679;45.190;5.722;2023-07-02T03:37:41;22.90;;;10.25;;
32172;SDS011;18679;45.190;5.722;2023-07-02T03:40:44;22.98;;;10.63;;
32172;SDS011;18679;45.190;5.722;2023-07-02T03:43:44;15.90;;;7.53;;
32172;SDS011;18679;45.190;5.722;2023-07-02T03:46:45;16.15;;;8.27;;
32172;SDS011;18679;45.190;5.722;2023-07-02T03:49:47;15.93;;;7.32;;
32172;SDS011;18679;45.190;5.722;2023-07-02T03:52:47;15.32;;;7.68;;
32172;SDS011;18679;45.190;5.722;2023-07-02T03:55:48;15.80;;;7.22;;
32172;SDS011;18679;45.190;5.722;2023-07-02T03:58:49;23.17;;;9.52;;
32172;SDS011;18679;45.190;5.722;2023-07-02T04:01:50;12.88;;;7.38;;
32172;SDS011;18679;45.190;5.722;2023-07-02T04:04:51;18.42;;;7.50;;
32172;SDS011;18679;45.190;5.722;2023-07-02T04:07:52;19.63;;;7.60;;
32172;SDS011;18679;45.190;5.722;2023-07-02T04:10:54;15.95;;;6.85;;
32172;SDS011;18679;45.190;5.722;2023-07-02T04:13:55;15.98;;;7.70;;
32172;SDS011;18679;45.190;5.722;2023-07-02T04:16:56;17.25;;;6.82;;
32172;SDS011;18679;45.190;5.722;2023-07-02T04:19:56;21.67;;;9.45;;
32172;SDS011;18679;45.190;5.722;2023-07-02T04:22:59;15.90;;;8.25;;
32172;SDS011;18679;45.190;5.722;2023-07-02T04:26:01;13.80;;;6.60;;
32172;SDS011;18679;45.190;5.722;2023-07-02T04:29:02;16.23;;;6.78;;
32172;SDS011;18679;45.190;5.722;2023-07-02T04:32:03;16.95;;;7.32;;
32172;SDS011;18679;45.190;5.722;2023-07-02T04:35:05;21.05;;;8.23;;
32172;SDS011;18679;45.190;5.722;2023-07-02T04:38:07;14.95;;;7.63;;
32172;SDS011;18679;45.190;5.722;2023-07-02T04:41:08;18.08;;;7.85;;
32172;SDS011;18679;45.190;5.722;2023-07-02T04:44:10;13.77;;;6.97;;
32172;SDS011;18679;45.190;5.722;2023-07-02T04:47:11;20.08;;;8.00;;
32172;SDS011;18679;45.190;5.722;2023-07-02T04:50:12;16.42;;;6.63;;
32172;SDS011;18679;45.190;5.722;2023-07-02T04:53:13;16.02;;;6.88;;
32172;SDS011;18679;45.190;5.722;2023-07-02T04:56:14;13.55;;;6.85;;
32172;SDS011;18679;45.190;5.722;2023-07-02T04:59:15;13.27;;;6.45;;
32172;SDS011;18679;45.190;5.722;2023-07-02T05:02:16;15.57;;;6.63;;
32172;SDS011;18679;45.190;5.722;2023-07-02T05:05:17;11.88;;;6.25;;
32172;SDS011;18679;45.190;5.722;2023-07-02T05:08:18;12.70;;;5.03;;
32172;SDS011;18679;45.190;5.722;2023-07-02T05:11:19;16.63;;;5.18;;
32172;SDS011;18679;45.190;5.722;2023-07-02T05:14:21;8.25;;;4.43;;
32172;SDS011;18679;45.190;5.722;2023-07-02T05:17:23;6.43;;;3.72;;
32172;SDS011;18679;45.190;5.722;2023-07-02T05:20:23;7.13;;;4.20;;
32172;SDS011;18679;45.190;5.722;2023-07-02T05:23:24;5.93;;;3.78;;
32172;SDS011;18679;45.190;5.722;2023-07-02T05:26:25;10.70;;;4.00;;
32172;SDS011;18679;45.190;5.722;2023-07-02T05:29:27;8.63;;;4.00;;
32172;SDS011;18679;45.190;5.722;2023-07-02T05:32:28;6.50;;;3.97;;
32172;SDS011;18679;45.190;5.722;2023-07-02T05:35:29;7.22;;;3.22;;
32172;SDS011;18679;45.190;5.722;2023-07-02T05:38:30;8.30;;;3.55;;
32172;SDS011;18679;45.190;5.722;2023-07-02T05:41:30;4.57;;;3.08;;
32172;SDS011;18679;45.190;5.722;2023-07-02T05:44:31;8.15;;;3.45;;
32172;SDS011;18679;45.190;5.722;2023-07-02T05:47:32;7.95;;;3.42;;
32172;SDS011;18679;45.190;5.722;2023-07-02T05:50:33;7.63;;;3.30;;
32172;SDS011;18679;45.190;5.722;2023-07-02T05:53:34;6.65;;;2.92;;
32172;SDS011;18679;45.190;5.722;2023-07-02T05:56:35;5.30;;;2.55;;
32172;SDS011;18679;45.190;5.722;2023-07-02T05:59:37;5.53;;;2.70;;
32172;SDS011;18679;45.190;5.722;2023-07-02T06:02:38;4.88;;;2.75;;
32172;SDS011;18679;45.190;5.722;2023-07-02T06:05:39;5.45;;;3.00;;
32172;SDS011;18679;45.190;5.722;2023-07-02T06:08:40;6.88;;;3.13;;
32172;SDS011;18679;45.190;5.722;2023-07-02T06:11:40;4.30;;;2.72;;
32172;SDS011;18679;45.190;5.722;2023-07-02T06:14:41;4.50;;;2.95;;
32172;SDS011;18679;45.190;5.722;2023-07-02T06:17:42;3.22;;;2.40;;
32172;SDS011;18679;45.190;5.722;2023-07-02T06:20:43;4.72;;;2.35;;
32172;SDS011;18679;45.190;5.722;2023-07-02T06:23:44;4.28;;;2.55;;
32172;SDS011;18679;45.190;5.722;2023-07-02T06:26:45;7.38;;;2.40;;
32172;SDS011;18679;45.190;5.722;2023-07-02T06:29:46;4.38;;;2.25;;
32172;SDS011;18679;45.190;5.722;2023-07-02T06:32:47;4.03;;;2.25;;
32172;SDS011;18679;45.190;5.722;2023-07-02T06:35:48;11.88;;;3.10;;
32172;SDS011;18679;45.190;5.722;2023-07-02T06:38:49;4.97;;;2.90;;
32172;SDS011;18679;45.190;5.722;2023-07-02T06:41:50;4.05;;;2.75;;
32172;SDS011;18679;45.190;5.722;2023-07-02T06:44:52;3.13;;;2.22;;
32172;SDS011;18679;45.190;5.722;2023-07-02T06:47:54;5.15;;;2.70;;
32172;SDS011;18679;45.190;5.722;2023-07-02T06:50:55;7.78;;;2.83;;
32172;SDS011;18679;45.190;5.722;2023-07-02T06:53:56;3.42;;;2.70;;
32172;SDS011;18679;45.190;5.722;2023-07-02T06:56:57;8.05;;;3.80;;
32172;SDS011;18679;45.190;5.722;2023-07-02T06:59:59;4.43;;;2.80;;
32172;SDS011;18679;45.190;5.722;2023-07-02T07:03:00;8.93;;;3.30;;
32172;SDS011;18679;45.190;5.722;2023-07-02T07:06:02;4.47;;;3.20;;
32172;SDS011;18679;45.190;5.722;2023-07-02T07:09:03;7.45;;;3.38;;
32172;SDS011;18679;45.190;5.722;2023-07-02T07:12:05;4.30;;;2.92;;
32172;SDS011;18679;45.190;5.722;2023-07-02T07:15:06;22.52;;;5.65;;
32172;SDS011;18679;45.190;5.722;2023-07-02T07:18:08;5.75;;;3.10;;
32172;SDS011;18679;45.190;5.722;2023-07-02T07:21:09;4.65;;;2.67;;
32172;SDS011;18679;45.190;5.722;2023-07-02T07:24:10;9.30;;;2.88;;
32172;SDS011;18679;45.190;5.722;2023-07-02T07:27:11;7.57;;;3.00;;
32172;SDS011;18679;45.190;5.722;2023-07-02T07:30:12;5.68;;;3.13;;
32172;SDS011;18679;45.190;5.722;2023-07-02T07:33:14;9.90;;;3.58;;
32172;SDS011;18679;45.190;5.722;2023-07-02T07:36:16;9.82;;;3.50;;
32172;SDS011;18679;45.190;5.722;2023-07-02T07:39:17;5.75;;;3.60;;
32172;SDS011;18679;45.190;5.722;2023-07-02T07:42:17;9.93;;;4.80;;
32172;SDS011;18679;45.190;5.722;2023-07-02T07:45:18;13.27;;;7.28;;
32172;SDS011;18679;45.190;5.722;2023-07-02T07:48:20;18.63;;;8.25;;
32172;SDS011;18679;45.190;5.722;2023-07-02T07:51:21;19.90;;;9.32;;
32172;SDS011;18679;45.190;5.722;2023-07-02T07:54:22;17.67;;;9.23;;
32172;SDS011;18679;45.190;5.722;2023-07-02T07:57:24;15.05;;;8.40;;
32172;SDS011;18679;45.190;5.722;2023-07-02T08:00:26;18.33;;;8.52;;
32172;SDS011;18679;45.190;5.722;2023-07-02T08:03:27;23.00;;;8.82;;
32172;SDS011;18679;45.190;5.722;2023-07-02T08:06:27;17.90;;;8.07;;
32172;SDS011;18679;45.190;5.722;2023-07-02T08:09:28;20.38;;;8.80;;
32172;SDS011;18679;45.190;5.722;2023-07-02T08:12:29;17.10;;;7.85;;
32172;SDS011;18679;45.190;5.722;2023-07-02T08:15:30;19.52;;;8.95;;
32172;SDS011;18679;45.190;5.722;2023-07-02T08:18:31;21.25;;;9.02;;
32172;SDS011;18679;45.190;5.722;2023-07-02T08:21:32;18.17;;;8.30;;
32172;SDS011;18679;45.190;5.722;2023-07-02T08:24:33;15.93;;;8.05;;
32172;SDS011;18679;45.190;5.722;2023-07-02T08:27:34;16.85;;;8.85;;
32172;SDS011;18679;45.190;5.722;2023-07-02T08:30:35;17.52;;;8.27;;
32172;SDS011;18679;45.190;5.722;2023-07-02T08:33:37;15.32;;;8.05;;
32172;SDS011;18679;45.190;5.722;2023-07-02T08:36:38;18.92;;;8.18;;
32172;SDS011;18679;45.190;5.722;2023-07-02T08:39:39;18.85;;;8.00;;
32172;SDS011;18679;45.190;5.722;2023-07-02T08:42:40;17.88;;;8.52;;
32172;SDS011;18679;45.190;5.722;2023-07-02T08:45:41;20.80;;;9.20;;
32172;SDS011;18679;45.190;5.722;2023-07-02T08:48:43;20.35;;;8.85;;
32172;SDS011;18679;45.190;5.722;2023-07-02T08:51:45;20.98;;;9.65;;
32172;SDS011;18679;45.190;5.722;2023-07-02T08:54:46;19.63;;;7.68;;
32172;SDS011;18679;45.190;5.722;2023-07-02T08:57:49;16.20;;;8.13;;
32172;SDS011;18679;45.190;5.722;2023-07-02T09:01:08;19.73;;;8.85;;
32172;SDS011;18679;45.190;5.722;2023-07-02T09:04:14;17.95;;;8.80;;
32172;SDS011;18679;45.190;5.722;2023-07-02T09:07:16;21.52;;;9.32;;
32172;SDS011;18679;45.190;5.722;2023-07-02T09:10:30;19.42;;;9.15;;
32172;SDS011;18679;45.190;5.722;2023-07-02T09:13:31;23.42;;;8.93;;
32172;SDS011;18679;45.190;5.722;2023-07-02T09:16:41;19.20;;;8.82;;
32172;SDS011;18679;45.190;5.722;2023-07-02T09:19:49;17.35;;;8.60;;
32172;SDS011;18679;45.190;5.722;2023-07-02T09:22:54;19.50;;;9.20;;
32172;SDS011;18679;45.190;5.722;2023-07-02T09:25:55;19.08;;;9.60;;
32172;SDS011;18679;45.190;5.722;2023-07-02T09:29:02;21.48;;;8.25;;
32172;SDS011;18679;45.190;5.722;2023-07-02T09:32:04;18.73;;;8.93;;
32172;SDS011;18679;45.190;5.722;2023-07-02T09:35:08;20.52;;;9.60;;
32172;SDS011;18679;45.190;5.722;2023-07-02T09:38:09;20.55;;;9.30;;
32172;SDS011;18679;45.190;5.722;2023-07-02T09:41:11;19.92;;;9.23;;
32172;SDS011;18679;45.190;5.722;2023-07-02T09:44:12;21.88;;;9.02;;
32172;SDS011;18679;45.190;5.722;2023-07-02T09:47:14;18.98;;;8.73;;
32172;SDS011;18679;45.190;5.722;2023-07-02T09:50:18;19.33;;;8.35;;
32172;SDS011;18679;45.190;5.722;2023-07-02T09:53:20;18.48;;;8.82;;
32172;SDS011;18679;45.190;5.722;2023-07-02T09:56:21;20.23;;;9.40;;
32172;SDS011;18679;45.190;5.722;2023-07-02T09:59:23;23.05;;;8.90;;
32172;SDS011;18679;45.190;5.722;2023-07-02T10:02:24;15.25;;;8.63;;
32172;SDS011;18679;45.190;5.722;2023-07-02T10:05:26;15.80;;;8.80;;
32172;SDS011;18679;45.190;5.722;2023-07-02T10:08:27;18.88;;;8.93;;
32172;SDS011;18679;45.190;5.722;2023-07-02T10:11:33;18.20;;;8.32;;
32172;SDS011;18679;45.190;5.722;2023-07-02T10:14:42;16.73;;;7.72;;
32172;SDS011;18679;45.190;5.722;2023-07-02T10:17:54;20.50;;;8.32;;
32172;SDS011;18679;45.190;5.722;2023-07-02T10:20:58;19.65;;;9.05;;
32172;SDS011;18679;45.190;5.722;2023-07-02T10:24:21;20.58;;;8.85;;
32172;SDS011;18679;45.190;5.722;2023-07-02T10:27:21;20.13;;;9.18;;
32172;SDS011;18679;45.190;5.722;2023-07-02T10:30:35;19.52;;;8.88;;
32172;SDS011;18679;45.190;5.722;2023-07-02T10:33:42;18.65;;;9.15;;
32172;SDS011;18679;45.190;5.722;2023-07-02T10:36:43;14.38;;;8.32;;
32172;SDS011;18679;45.190;5.722;2023-07-02T10:39:44;16.45;;;8.55;;
32172;SDS011;18679;45.190;5.722;2023-07-02T10:45:47;19.15;;;8.80;;
32172;SDS011;18679;45.190;5.722;2023-07-02T10:48:54;16.05;;;8.35;;
32172;SDS011;18679;45.190;5.722;2023-07-02T10:54:57;18.58;;;9.30;;
32172;SDS011;18679;45.190;5.722;2023-07-02T10:58:08;17.83;;;9.00;;
32172;SDS011;18679;45.190;5.722;2023-07-02T11:01:09;17.98;;;9.40;;
32172;SDS011;18679;45.190;5.722;2023-07-02T11:04:10;18.23;;;7.88;;
32172;SDS011;18679;45.190;5.722;2023-07-02T11:07:13;16.35;;;8.38;;
32172;SDS011;18679;45.190;5.722;2023-07-02T11:10:18;18.23;;;9.20;;
32172;SDS011;18679;45.190;5.722;2023-07-02T11:13:19;18.17;;;8.45;;
32172;SDS011;18679;45.190;5.722;2023-07-02T11:16:27;17.48;;;8.38;;
32172;SDS011;18679;45.190;5.722;2023-07-02T11:19:29;20.50;;;9.00;;
32172;SDS011;18679;45.190;5.722;2023-07-02T11:22:31;17.55;;;9.18;;
32172;SDS011;18679;45.190;5.722;2023-07-02T11:25:35;18.23;;;8.25;;
32172;SDS011;18679;45.190;5.722;2023-07-02T11:28:36;13.73;;;8.00;;
32172;SDS011;18679;45.190;5.722;2023-07-02T11:31:47;19.42;;;8.80;;
32172;SDS011;18679;45.190;5.722;2023-07-02T11:34:52;13.95;;;7.35;;
32172;SDS011;18679;45.190;5.722;2023-07-02T11:37:54;15.75;;;8.10;;
32172;SDS011;18679;45.190;5.722;2023-07-02T11:40:55;13.60;;;7.75;;
32172;SDS011;18679;45.190;5.722;2023-07-02T11:43:55;15.98;;;7.22;;
32172;SDS011;18679;45.190;5.722;2023-07-02T11:46:56;14.02;;;6.28;;
32172;SDS011;18679;45.190;5.722;2023-07-02T11:49:57;10.98;;;6.45;;
32172;SDS011;18679;45.190;5.722;2023-07-02T11:53:01;11.73;;;5.40;;
32172;SDS011;18679;45.190;5.722;2023-07-02T11:56:03;12.35;;;5.78;;
32172;SDS011;18679;45.190;5.722;2023-07-02T11:59:03;11.32;;;6.15;;
32172;SDS011;18679;45.190;5.722;2023-07-02T12:02:04;10.65;;;4.95;;
32172;SDS011;18679;45.190;5.722;2023-07-02T12:05:06;11.90;;;5.53;;
32172;SDS011;18679;45.190;5.722;2023-07-02T12:08:07;11.63;;;5.32;;
32172;SDS011;18679;45.190;5.722;2023-07-02T12:11:08;10.68;;;5.63;;
32172;SDS011;18679;45.190;5.722;2023-07-02T12:14:10;8.15;;;4.63;;
32172;SDS011;18679;45.190;5.722;2023-07-02T12:17:12;9.55;;;5.13;;
32172;SDS011;18679;45.190;5.722;2023-07-02T12:20:12;9.07;;;5.38;;
32172;SDS011;18679;45.190;5.722;2023-07-02T12:23:13;11.38;;;5.65;;
32172;SDS011;18679;45.190;5.722;2023-07-02T12:26:14;7.72;;;4.53;;
32172;SDS011;18679;45.190;5.722;2023-07-02T12:29:15;7.88;;;4.50;;
32172;SDS011;18679;45.190;5.722;2023-07-02T12:32:16;8.02;;;4.70;;
32172;SDS011;18679;45.190;5.722;2023-07-02T12:35:17;10.60;;;5.50;;
32172;SDS011;18679;45.190;5.722;2023-07-02T12:38:21;8.32;;;4.45;;
32172;SDS011;18679;45.190;5.722;2023-07-02T12:41:22;10.48;;;4.93;;
32172;SDS011;18679;45.190;5.722;2023-07-02T12:44:23;11.00;;;4.60;;
32172;SDS011;18679;45.190;5.722;2023-07-02T12:47:24;8.57;;;4.13;;
32172;SDS011;18679;45.190;5.722;2023-07-02T12:50:25;9.43;;;4.50;;
32172;SDS011;18679;45.190;5.722;2023-07-02T12:53:26;8.60;;;4.97;;
32172;SDS011;18679;45.190;5.722;2023-07-02T12:56:27;7.93;;;4.30;;
32172;SDS011;18679;45.190;5.722;2023-07-02T12:59:28;8.18;;;4.15;;
32172;SDS011;18679;45.190;5.722;2023-07-02T13:02:29;8.52;;;3.75;;
32172;SDS011;18679;45.190;5.722;2023-07-02T13:05:30;5.65;;;3.47;;
32172;SDS011;18679;45.190;5.722;2023-07-02T13:08:31;5.82;;;3.50;;
32172;SDS011;18679;45.190;5.722;2023-07-02T13:11:32;5.20;;;3.35;;
32172;SDS011;18679;45.190;5.722;2023-07-02T13:14:33;5.00;;;3.08;;
32172;SDS011;18679;45.190;5.722;2023-07-02T13:17:34;4.85;;;2.88;;
32172;SDS011;18679;45.190;5.722;2023-07-02T13:20:35;5.47;;;3.72;;
32172;SDS011;18679;45.190;5.722;2023-07-02T13:23:36;4.53;;;2.90;;
32172;SDS011;18679;45.190;5.722;2023-07-02T13:26:37;5.82;;;3.20;;
32172;SDS011;18679;45.190;5.722;2023-07-02T13:29:38;5.60;;;3.60;;
32172;SDS011;18679;45.190;5.722;2023-07-02T13:32:39;6.80;;;3.30;;
32172;SDS011;18679;45.190;5.722;2023-07-02T13:35:40;6.63;;;3.45;;
32172;SDS011;18679;45.190;5.722;2023-07-02T13:38:41;6.38;;;3.30;;
32172;SDS011;18679;45.190;5.722;2023-07-02T13:41:42;4.15;;;3.08;;
32172;SDS011;18679;45.190;5.722;2023-07-02T13:44:43;6.45;;;3.47;;
32172;SDS011;18679;45.190;5.722;2023-07-02T13:47:44;8.07;;;3.88;;
32172;SDS011;18679;45.190;5.722;2023-07-02T13:50:45;6.43;;;3.20;;
32172;SDS011;18679;45.190;5.722;2023-07-02T13:53:46;5.78;;;3.08;;
32172;SDS011;18679;45.190;5.722;2023-07-02T13:56:47;6.00;;;3.20;;
32172;SDS011;18679;45.190;5.722;2023-07-02T13:59:48;4.88;;;3.38;;
32172;SDS011;18679;45.190;5.722;2023-07-02T14:02:49;9.68;;;3.20;;
32172;SDS011;18679;45.190;5.722;2023-07-02T14:05:49;4.38;;;3.20;;
32172;SDS011;18679;45.190;5.722;2023-07-02T14:08:51;7.07;;;3.10;;
32172;SDS011;18679;45.190;5.722;2023-07-02T14:11:52;5.90;;;3.17;;
32172;SDS011;18679;45.190;5.722;2023-07-02T14:14:53;4.78;;;3.05;;
32172;SDS011;18679;45.190;5.722;2023-07-02T14:17:53;5.13;;;3.05;;
32172;SDS011;18679;45.190;5.722;2023-07-02T14:20:55;5.85;;;3.45;;
32172;SDS011;18679;45.190;5.722;2023-07-02T14:23:56;4.93;;;3.40;;
32172;SDS011;18679;45.190;5.722;2023-07-02T14:26:58;6.90;;;3.50;;
32172;SDS011;18679;45.190;5.722;2023-07-02T14:29:59;5.97;;;3.58;;
32172;SDS011;18679;45.190;5.722;2023-07-02T14:33:01;5.80;;;3.28;;
32172;SDS011;18679;45.190;5.722;2023-07-02T14:36:02;5.32;;;3.38;;
32172;SDS011;18679;45.190;5.722;2023-07-02T14:39:04;4.30;;;2.90;;
32172;SDS011;18679;45.190;5.722;2023-07-02T14:42:05;6.28;;;3.42;;
32172;SDS011;18679;45.190;5.722;2023-07-02T14:45:07;5.43;;;3.30;;
32172;SDS011;18679;45.190;5.722;2023-07-02T14:48:09;6.95;;;3.33;;
32172;SDS011;18679;45.190;5.722;2023-07-02T14:51:10;4.70;;;3.17;;
32172;SDS011;18679;45.190;5.722;2023-07-02T14:54:11;7.93;;;3.45;;
32172;SDS011;18679;45.190;5.722;2023-07-02T14:57:12;4.25;;;2.97;;
32172;SDS011;18679;45.190;5.722;2023-07-02T15:00:13;4.25;;;2.75;;
32172;SDS011;18679;45.190;5.722;2023-07-02T15:03:14;6.00;;;3.03;;
32172;SDS011;18679;45.190;5.722;2023-07-02T15:06:17;4.32;;;3.08;;
32172;SDS011;18679;45.190;5.722;2023-07-02T15:09:18;4.10;;;2.63;;
32172;SDS011;18679;45.190;5.722;2023-07-02T15:12:19;4.65;;;3.30;;
32172;SDS011;18679;45.190;5.722;2023-07-02T15:15:20;5.47;;;3.15;;
32172;SDS011;18679;45.190;5.722;2023-07-02T15:18:22;7.13;;;3.00;;
32172;SDS011;18679;45.190;5.722;2023-07-02T15:21:23;5.25;;;3.00;;
32172;SDS011;18679;45.190;5.722;2023-07-02T15:24:24;5.78;;;2.85;;
32172;SDS011;18679;45.190;5.722;2023-07-02T15:27:25;4.43;;;3.25;;
32172;SDS011;18679;45.190;5.722;2023-07-02T15:30:26;4.38;;;2.65;;
32172;SDS011;18679;45.190;5.722;2023-07-02T15:33:28;4.25;;;2.70;;
32172;SDS011;18679;45.190;5.722;2023-07-02T15:36:29;4.63;;;3.13;;
32172;SDS011;18679;45.190;5.722;2023-07-02T15:39:35;4.40;;;2.77;;
32172;SDS011;18679;45.190;5.722;2023-07-02T15:42:36;5.45;;;3.05;;
32172;SDS011;18679;45.190;5.722;2023-07-02T15:45:37;7.25;;;2.78;;
32172;SDS011;18679;45.190;5.722;2023-07-02T15:48:38;4.93;;;2.83;;
32172;SDS011;18679;45.190;5.722;2023-07-02T15:51:39;6.55;;;3.38;;
32172;SDS011;18679;45.190;5.722;2023-07-02T15:54:40;4.80;;;3.10;;
32172;SDS011;18679;45.190;5.722;2023-07-02T15:57:41;4.90;;;2.53;;
32172;SDS011;18679;45.190;5.722;2023-07-02T16:00:42;5.88;;;3.25;;
32172;SDS011;18679;45.190;5.722;2023-07-02T16:03:43;4.57;;;2.58;;
32172;SDS011;18679;45.190;5.722;2023-07-02T16:06:44;3.97;;;3.08;;
32172;SDS011;18679;45.190;5.722;2023-07-02T16:09:45;4.93;;;3.13;;
32172;SDS011;18679;45.190;5.722;2023-07-02T16:12:46;5.10;;;3.40;;
32172;SDS011;18679;45.190;5.722;2023-07-02T16:15:48;5.85;;;3.17;;
32172;SDS011;18679;45.190;5.722;2023-07-02T16:18:49;4.45;;;3.08;;
32172;SDS011;18679;45.190;5.722;2023-07-02T16:21:50;5.10;;;3.30;;
32172;SDS011;18679;45.190;5.722;2023-07-02T16:24:51;13.35;;;3.90;;
32172;SDS011;18679;45.190;5.722;2023-07-02T16:27:52;7.68;;;4.00;;
32172;SDS011;18679;45.190;5.722;2023-07-02T16:30:53;7.10;;;3.70;;
32172;SDS011;18679;45.190;5.722;2023-07-02T16:33:54;6.72;;;4.20;;
32172;SDS011;18679;45.190;5.722;2023-07-02T16:36:55;8.45;;;4.38;;
32172;SDS011;18679;45.190;5.722;2023-07-02T16:39:56;10.25;;;3.90;;
32172;SDS011;18679;45.190;5.722;2023-07-02T16:42:57;5.68;;;3.30;;
32172;SDS011;18679;45.190;5.722;2023-07-02T16:45:58;6.95;;;4.05;;
32172;SDS011;18679;45.190;5.722;2023-07-02T16:48:59;7.18;;;4.22;;
32172;SDS011;18679;45.190;5.722;2023-07-02T16:52:00;8.85;;;4.40;;
32172;SDS011;18679;45.190;5.722;2023-07-02T16:55:00;6.82;;;4.18;;
32172;SDS011;18679;45.190;5.722;2023-07-02T16:58:01;8.48;;;3.80;;
32172;SDS011;18679;45.190;5.722;2023-07-02T17:01:07;7.20;;;3.85;;
32172;SDS011;18679;45.190;5.722;2023-07-02T17:04:10;7.28;;;4.05;;
32172;SDS011;18679;45.190;5.722;2023-07-02T17:07:13;7.28;;;3.65;;
32172;SDS011;18679;45.190;5.722;2023-07-02T17:10:14;8.30;;;3.35;;
32172;SDS011;18679;45.190;5.722;2023-07-02T17:13:15;7.78;;;3.95;;
32172;SDS011;18679;45.190;5.722;2023-07-02T17:16:16;8.18;;;4.07;;
32172;SDS011;18679;45.190;5.722;2023-07-02T17:19:27;6.97;;;3.50;;
32172;SDS011;18679;45.190;5.722;2023-07-02T17:22:30;7.07;;;3.67;;
32172;SDS011;18679;45.190;5.722;2023-07-02T17:25:31;4.97;;;3.50;;
32172;SDS011;18679;45.190;5.722;2023-07-02T17:28:32;5.80;;;3.38;;
32172;SDS011;18679;45.190;5.722;2023-07-02T17:31:33;6.75;;;3.60;;
32172;SDS011;18679;45.190;5.722;2023-07-02T17:34:35;6.32;;;3.45;;
32172;SDS011;18679;45.190;5.722;2023-07-02T17:37:37;5.80;;;3.35;;
32172;SDS011;18679;45.190;5.722;2023-07-02T17:40:41;4.55;;;3.05;;
32172;SDS011;18679;45.190;5.722;2023-07-02T17:43:42;6.53;;;2.70;;
32172;SDS011;18679;45.190;5.722;2023-07-02T17:46:43;4.82;;;2.80;;
32172;SDS011;18679;45.190;5.722;2023-07-02T17:49:45;4.88;;;2.58;;
32172;SDS011;18679;45.190;5.722;2023-07-02T17:52:47;5.65;;;2.67;;
32172;SDS011;18679;45.190;5.722;2023-07-02T17:55:48;4.97;;;2.50;;
32172;SDS011;18679;45.190;5.722;2023-07-02T17:58:49;4.13;;;2.50;;
32172;SDS011;18679;45.190;5.722;2023-07-02T18:01:52;5.72;;;2.35;;
32172;SDS011;18679;45.190;5.722;2023-07-02T18:04:54;7.50;;;2.45;;
32172;SDS011;18679;45.190;5.722;2023-07-02T18:07:55;3.30;;;2.22;;
32172;SDS011;18679;45.190;5.722;2023-07-02T18:10:56;8.55;;;3.03;;
32172;SDS011;18679;45.190;5.722;2023-07-02T18:13:58;6.57;;;2.63;;
32172;SDS011;18679;45.190;5.722;2023-07-02T18:16:59;6.68;;;2.60;;